createdAt,value
2019-05-30T00:00:17.445Z,2.80
2019-05-30T00:02:40.321Z,3.07
2019-05-30T00:05:08.601Z,2.90
2019-05-30T00:07:36.803Z,3.03
2019-05-30T00:10:08.113Z,2.80
2019-05-30T00:12:36.581Z,2.73
2019-05-30T00:15:08.081Z,3.00
2019-05-30T00:17:36.621Z,3.10
2019-05-30T00:20:05.852Z,2.83
2019-05-30T00:22:34.313Z,2.70
2019-05-30T00:25:02.532Z,2.90
2019-05-30T00:27:30.876Z,2.57
2019-05-30T00:29:59.302Z,3.00
2019-05-30T00:32:27.654Z,3.30
2019-05-30T00:34:55.878Z,2.80
2019-05-30T00:37:24.089Z,3.33
2019-05-30T00:39:52.280Z,3.17
2019-05-30T00:42:20.480Z,3.50
2019-05-30T00:44:48.929Z,3.37
2019-05-30T00:47:17.111Z,3.17
2019-05-30T00:49:45.312Z,2.67
2019-05-30T00:52:13.508Z,3.13
2019-05-30T00:54:41.708Z,2.90
2019-05-30T00:57:09.904Z,3.00
2019-05-30T00:59:38.109Z,2.97
2019-05-30T01:02:06.992Z,3.20
2019-05-30T01:04:35.294Z,2.77
2019-05-30T01:07:03.626Z,2.73
2019-05-30T01:09:32.159Z,3.07
2019-05-30T01:12:01.013Z,2.90
2019-05-30T01:14:29.377Z,3.00
2019-05-30T01:16:59.011Z,3.10
2019-05-30T01:19:27.281Z,3.20
2019-05-30T01:21:55.484Z,3.33
2019-05-30T01:24:23.692Z,3.70
2019-05-30T01:26:51.888Z,3.47
2019-05-30T01:29:20.096Z,4.10
2019-05-30T01:31:48.289Z,3.50
2019-05-30T01:34:16.585Z,3.80
2019-05-30T01:36:44.779Z,3.07
2019-05-30T01:39:12.987Z,3.30
2019-05-30T01:41:41.184Z,3.07
2019-05-30T01:44:09.384Z,3.33
2019-05-30T01:46:37.845Z,3.23
2019-05-30T01:49:06.779Z,3.07
2019-05-30T01:51:35.426Z,3.30
2019-05-30T01:54:04.587Z,3.50
2019-05-30T01:56:32.900Z,3.00
2019-05-30T01:59:01.116Z,3.30
2019-05-30T02:01:29.305Z,3.07
2019-05-30T02:03:58.979Z,3.00
2019-05-30T02:06:27.402Z,3.13
2019-05-30T02:08:55.938Z,2.80
2019-05-30T02:11:24.188Z,3.00
2019-05-30T02:13:52.395Z,3.07
2019-05-30T02:16:20.592Z,2.90
2019-05-30T02:18:48.823Z,3.33
2019-05-30T02:21:17.024Z,3.17
2019-05-30T02:23:45.563Z,3.07
2019-05-30T02:26:13.856Z,3.07
2019-05-30T02:28:42.316Z,2.80
2019-05-30T02:31:12.203Z,3.50
2019-05-30T02:33:40.446Z,3.40
2019-05-30T02:36:11.014Z,3.60
2019-05-30T02:38:38.806Z,3.30
2019-05-30T02:41:08.140Z,3.37
2019-05-30T02:43:37.013Z,4.67
2019-05-30T02:46:05.996Z,3.80
2019-05-30T02:48:35.149Z,3.80
2019-05-30T02:51:03.453Z,3.13
2019-05-30T02:53:31.729Z,2.97
2019-05-30T02:56:01.398Z,3.20
2019-05-30T02:58:29.724Z,3.27
2019-05-30T03:00:57.933Z,3.73
2019-05-30T03:03:26.130Z,3.40
2019-05-30T03:05:54.647Z,3.43
2019-05-30T03:08:22.857Z,3.80
2019-05-30T03:10:51.321Z,3.63
2019-05-30T03:13:19.883Z,4.03
2019-05-30T03:15:48.477Z,4.27
2019-05-30T03:18:16.708Z,3.87
2019-05-30T03:20:45.245Z,4.10
2019-05-30T03:23:14.730Z,4.23
2019-05-30T03:25:43.730Z,4.10
2019-05-30T03:28:13.623Z,3.87
2019-05-30T03:30:42.505Z,4.60
2019-05-30T03:33:31.754Z,4.07
2019-05-30T03:35:43.571Z,3.93
2019-05-30T03:38:13.529Z,4.00
2019-05-30T03:40:41.382Z,4.43
2019-05-30T03:43:11.652Z,4.20
2019-05-30T03:45:39.510Z,4.20
2019-05-30T03:48:11.389Z,3.87
2019-05-30T03:50:39.344Z,4.23
2019-05-30T03:53:09.895Z,4.23
2019-05-30T03:55:37.842Z,3.83
2019-05-30T03:58:16.447Z,3.77
2019-05-30T04:00:55.305Z,3.90
2019-05-30T04:03:50.591Z,4.03
2019-05-30T04:06:34.203Z,4.10
2019-05-30T04:09:07.378Z,4.10
2019-05-30T04:11:46.292Z,4.00
2019-05-30T04:14:19.193Z,4.13
2019-05-30T04:16:47.131Z,4.13
2019-05-30T04:19:17.151Z,4.13
2019-05-30T04:21:45.772Z,3.80
2019-05-30T04:24:14.594Z,4.47
2019-05-30T04:26:44.132Z,4.50
2019-05-30T04:29:14.347Z,4.63
2019-05-30T04:31:42.263Z,4.77
2019-05-30T04:34:12.448Z,5.07
2019-05-30T04:36:40.391Z,5.30
2019-05-30T04:39:08.968Z,5.63
2019-05-30T04:41:37.663Z,5.60
2019-05-30T04:44:06.295Z,5.27
2019-05-30T04:46:34.850Z,5.07
2019-05-30T04:49:03.046Z,5.27
2019-05-30T04:51:31.252Z,5.13
2019-05-30T04:53:59.779Z,5.60
2019-05-30T04:56:28.258Z,5.30
2019-05-30T04:58:56.740Z,5.87
2019-05-30T05:01:24.937Z,6.10
2019-05-30T05:03:53.151Z,6.10
2019-05-30T05:06:21.944Z,5.90
2019-05-30T05:08:50.435Z,6.40
2019-05-30T05:11:21.501Z,6.60
2019-05-30T05:13:49.160Z,6.40
2019-05-30T05:16:29.436Z,7.13
2019-05-30T05:18:47.289Z,6.67
2019-05-30T05:21:16.620Z,6.90
2019-05-30T05:23:45.388Z,6.70
2019-05-30T05:26:13.623Z,6.80
2019-05-30T05:28:42.103Z,6.07
2019-05-30T05:31:10.300Z,6.43
2019-05-30T05:33:38.509Z,7.13
2019-05-30T05:36:06.721Z,7.40
2019-05-30T05:38:34.930Z,7.07
2019-05-30T05:41:03.124Z,7.70
2019-05-30T05:43:31.330Z,6.93
2019-05-30T05:45:59.825Z,7.10
2019-05-30T05:48:28.828Z,7.40
2019-05-30T05:50:57.101Z,7.23
2019-05-30T05:53:25.544Z,6.77
2019-05-30T05:55:53.756Z,7.17
2019-05-30T05:58:23.707Z,7.10
2019-05-30T06:00:51.893Z,7.57
2019-05-30T06:03:20.386Z,7.90
2019-05-30T06:05:53.045Z,7.60
2019-05-30T06:08:19.479Z,7.63
2019-05-30T06:10:47.813Z,6.87
2019-05-30T06:13:16.613Z,8.13
2019-05-30T06:15:44.924Z,7.23
2019-05-30T06:18:13.124Z,7.80
2019-05-30T06:20:41.348Z,7.50
2019-05-30T06:23:09.791Z,7.77
2019-05-30T06:25:38.002Z,7.87
2019-05-30T06:28:06.220Z,8.50
2019-05-30T06:30:34.432Z,7.73
2019-05-30T06:33:02.905Z,7.43
2019-05-30T06:35:31.117Z,7.83
2019-05-30T06:37:59.774Z,7.73
2019-05-30T06:40:30.878Z,8.47
2019-05-30T06:42:57.983Z,8.43
2019-05-30T06:45:26.837Z,8.00
2019-05-30T06:47:55.188Z,7.17
2019-05-30T06:50:24.622Z,7.47
2019-05-30T06:52:53.024Z,7.30
2019-05-30T06:55:21.236Z,6.70
2019-05-30T06:57:49.431Z,6.90
2019-05-30T07:00:17.661Z,6.87
2019-05-30T07:02:45.922Z,6.80
2019-05-30T07:05:15.279Z,5.30
2019-05-30T07:07:44.009Z,4.23
2019-05-30T07:10:12.506Z,4.67
2019-05-30T07:12:40.791Z,4.53
2019-05-30T07:15:11.968Z,4.43
2019-05-30T07:17:40.170Z,5.07
2019-05-30T07:20:08.489Z,4.30
2019-05-30T07:22:36.800Z,4.50
2019-05-30T07:25:07.207Z,4.93
2019-05-30T07:27:35.438Z,4.23
2019-05-30T07:30:05.348Z,4.40
2019-05-30T07:32:34.142Z,4.40
2019-05-30T07:35:06.848Z,4.47
2019-05-30T07:37:32.410Z,4.13
2019-05-30T07:40:00.626Z,3.60
2019-05-30T07:42:28.856Z,4.30
2019-05-30T07:44:57.357Z,3.90
2019-05-30T07:47:25.980Z,4.03
2019-05-30T07:49:54.641Z,4.10
2019-05-30T07:52:22.843Z,3.60
2019-05-30T07:54:51.275Z,3.30
2019-05-30T07:57:19.573Z,3.00
2019-05-30T07:59:48.038Z,3.03
2019-05-30T08:02:16.237Z,3.60
2019-05-30T08:04:46.911Z,3.50
2019-05-30T08:07:14.372Z,3.43
2019-05-30T08:09:42.570Z,3.57
2019-05-30T08:12:10.802Z,3.53
2019-05-30T08:14:38.968Z,3.27
2019-05-30T08:17:07.210Z,3.70
2019-05-30T08:19:35.992Z,3.23
2019-05-30T08:22:04.280Z,3.40
2019-05-30T08:24:32.477Z,3.73
2019-05-30T08:27:00.714Z,3.80
2019-05-30T08:29:29.932Z,3.17
2019-05-30T08:31:58.300Z,3.80
2019-05-30T08:34:26.502Z,3.70
2019-05-30T08:36:54.756Z,3.80
2019-05-30T08:39:22.957Z,4.00
2019-05-30T08:42:10.601Z,4.07
2019-05-30T08:44:40.050Z,4.17
2019-05-30T08:47:08.552Z,3.60
2019-05-30T08:49:36.762Z,3.73
2019-05-30T08:52:04.972Z,3.33
2019-05-30T08:54:34.291Z,3.83
2019-05-30T08:57:02.676Z,3.90
2019-05-30T08:59:30.876Z,3.13
2019-05-30T09:01:59.102Z,4.07
2019-05-30T09:04:27.302Z,3.47
2019-05-30T09:06:55.585Z,3.67
2019-05-30T09:09:23.806Z,3.83
2019-05-30T09:11:52.008Z,3.90
2019-05-30T09:14:20.193Z,4.03
2019-05-30T09:16:49.593Z,3.87
2019-05-30T09:19:18.477Z,3.00
2019-05-30T09:21:47.471Z,3.10
2019-05-30T09:24:15.742Z,2.90
2019-05-30T09:26:47.155Z,2.80
2019-05-30T09:29:13.976Z,2.57
2019-05-30T09:31:42.857Z,2.63
2019-05-30T09:34:12.150Z,2.40
2019-05-30T09:36:41.012Z,2.40
2019-05-30T09:39:09.351Z,2.40
2019-05-30T09:41:39.197Z,2.40
2019-05-30T09:44:08.193Z,2.23
2019-05-30T09:46:36.540Z,2.77
2019-05-30T09:49:05.586Z,2.43
2019-05-30T09:51:33.811Z,2.20
2019-05-30T09:54:02.032Z,2.43
2019-05-30T09:56:30.237Z,2.30
2019-05-30T09:58:58.447Z,2.40
2019-05-30T10:01:26.670Z,3.00
2019-05-30T10:03:54.870Z,2.60
2019-05-30T10:06:29.397Z,2.23
2019-05-30T10:08:53.376Z,2.20
2019-05-30T10:11:21.585Z,1.80
2019-05-30T10:13:51.125Z,2.20
2019-05-30T10:16:19.463Z,2.00
2019-05-30T10:18:49.010Z,1.90
2019-05-30T10:21:17.768Z,1.90
2019-05-30T10:23:47.580Z,2.20
2019-05-30T10:26:16.161Z,2.00
2019-05-30T10:28:45.001Z,1.90
2019-05-30T10:31:14.270Z,2.00
2019-05-30T10:33:42.477Z,1.70
2019-05-30T10:36:14.630Z,1.80
2019-05-30T10:38:40.905Z,1.60
2019-05-30T10:41:09.161Z,1.67
2019-05-30T10:43:37.756Z,1.87
2019-05-30T10:46:06.024Z,1.60
2019-05-30T10:48:36.176Z,1.67
2019-05-30T10:51:04.426Z,1.77
2019-05-30T10:53:32.857Z,1.90
2019-05-30T10:56:01.085Z,1.57
2019-05-30T10:58:29.372Z,1.60
2019-05-30T11:00:58.134Z,1.50
2019-05-30T11:03:27.313Z,1.67
2019-05-30T11:05:58.792Z,1.60
2019-05-30T11:08:26.976Z,1.50
2019-05-30T11:10:55.239Z,1.33
2019-05-30T11:13:23.496Z,1.70
2019-05-30T11:15:51.784Z,1.43
2019-05-30T11:18:20.023Z,1.30
2019-05-30T11:20:48.352Z,1.40
2019-05-30T11:23:16.630Z,1.60
2019-05-30T11:25:44.822Z,1.60
2019-05-30T11:28:13.065Z,1.30
2019-05-30T11:30:41.276Z,1.10
2019-05-30T11:33:09.493Z,1.33
2019-05-30T11:35:37.699Z,1.33
2019-05-30T11:38:06.216Z,1.20
2019-05-30T11:40:34.539Z,1.20
2019-05-30T11:43:02.800Z,1.13
2019-05-30T11:45:31.012Z,1.20
2019-05-30T11:48:00.076Z,1.30
2019-05-30T11:50:28.502Z,1.10
2019-05-30T11:52:57.860Z,1.20
2019-05-30T11:55:26.200Z,1.27
2019-05-30T11:57:55.066Z,1.30
2019-05-30T12:00:25.497Z,1.30
2019-05-30T12:02:54.349Z,1.30
2019-05-30T12:05:23.459Z,1.20
2019-05-30T12:07:52.844Z,1.53
2019-05-30T12:10:23.223Z,1.17
2019-05-30T12:12:51.431Z,1.50
2019-05-30T12:15:19.709Z,1.30
2019-05-30T12:17:47.893Z,1.20
2019-05-30T12:20:16.154Z,1.40
2019-05-30T12:22:44.396Z,1.20
2019-05-30T12:25:12.680Z,1.17
2019-05-30T12:27:40.893Z,1.27
2019-05-30T12:30:10.548Z,1.30
2019-05-30T12:32:38.756Z,1.30
2019-05-30T12:35:08.575Z,1.30
2019-05-30T12:37:53.253Z,1.50
2019-05-30T12:40:08.457Z,1.20
2019-05-30T12:42:36.953Z,1.60
2019-05-30T12:45:08.250Z,1.43
2019-05-30T12:47:36.453Z,1.57
2019-05-30T12:50:09.454Z,1.57
2019-05-30T12:52:37.660Z,1.50
2019-05-30T12:55:07.110Z,1.63
2019-05-30T12:57:35.311Z,1.30
2019-05-30T13:00:16.609Z,1.60
2019-05-30T13:02:38.649Z,1.60
2019-05-30T13:05:07.787Z,1.50
2019-05-30T13:07:35.988Z,1.37
2019-05-30T13:10:05.832Z,1.50
2019-05-30T13:12:34.249Z,1.90
2019-05-30T13:15:03.742Z,2.63
2019-05-30T13:17:32.139Z,2.10
2019-05-30T13:20:01.468Z,2.20
2019-05-30T13:22:29.946Z,2.30
2019-05-30T13:24:59.626Z,1.87
2019-05-30T13:27:27.938Z,1.70
2019-05-30T13:29:56.136Z,1.80
2019-05-30T13:32:24.336Z,1.50
2019-05-30T13:34:52.542Z,1.50
2019-05-30T13:37:20.960Z,1.40
2019-05-30T13:39:49.416Z,1.70
2019-05-30T13:42:17.614Z,1.60
2019-05-30T13:44:45.839Z,1.90
2019-05-30T13:47:14.042Z,1.53
2019-05-30T13:49:42.242Z,1.70
2019-05-30T13:52:10.444Z,1.50
2019-05-30T13:54:38.647Z,1.30
2019-05-30T13:57:07.872Z,1.50
2019-05-30T13:59:36.136Z,1.40
2019-05-30T14:02:04.410Z,1.60
2019-05-30T14:04:32.617Z,1.70
2019-05-30T14:07:02.179Z,1.60
2019-05-30T14:09:30.424Z,1.77
2019-05-30T14:11:58.692Z,1.60
2019-05-30T14:14:26.899Z,1.50
2019-05-30T14:16:55.097Z,1.43
2019-05-30T14:19:25.114Z,1.83
2019-05-30T14:21:53.224Z,1.40
2019-05-30T14:24:21.417Z,1.40
2019-05-30T14:26:49.669Z,1.70
2019-05-30T14:29:17.865Z,1.80
2019-05-30T14:31:46.076Z,1.70
2019-05-30T14:34:14.273Z,1.83
2019-05-30T14:36:42.484Z,1.83
2019-05-30T14:39:11.209Z,2.00
2019-05-30T14:41:39.456Z,1.80
2019-05-30T14:44:07.661Z,1.80
2019-05-30T14:46:35.862Z,1.40
2019-05-30T14:49:04.463Z,1.47
2019-05-30T14:51:35.304Z,1.83
2019-05-30T14:54:02.616Z,1.80
2019-05-30T14:56:30.825Z,1.80
2019-05-30T14:58:59.032Z,1.60
2019-05-30T15:01:27.244Z,2.17
2019-05-30T15:03:55.440Z,1.80
2019-05-30T15:06:24.139Z,1.90
2019-05-30T15:08:52.351Z,1.90
2019-05-30T15:11:20.559Z,2.10
2019-05-30T15:13:48.749Z,2.13
2019-05-30T15:16:17.208Z,1.80
2019-05-30T15:18:45.519Z,1.80
2019-05-30T15:21:14.538Z,1.73
2019-05-30T15:23:42.898Z,2.23
2019-05-30T15:26:12.103Z,2.13
2019-05-30T15:28:40.380Z,1.50
2019-05-30T15:31:08.576Z,1.40
2019-05-30T15:33:36.789Z,1.63
2019-05-30T15:36:04.999Z,3.00
2019-05-30T15:38:33.205Z,2.10
2019-05-30T15:41:01.392Z,1.83
2019-05-30T15:43:29.602Z,1.83
2019-05-30T15:45:57.796Z,2.50
2019-05-30T15:48:26.242Z,1.73
2019-05-30T15:50:54.463Z,1.37
2019-05-30T15:53:22.660Z,1.33
2019-05-30T15:55:50.899Z,1.50
2019-05-30T15:58:20.497Z,1.40
2019-05-30T16:00:48.813Z,1.90
2019-05-30T16:03:17.025Z,1.13
2019-05-30T16:05:45.212Z,1.40
2019-05-30T16:08:14.677Z,1.90
2019-05-30T16:10:42.917Z,1.20
2019-05-30T16:13:11.472Z,1.30
2019-05-30T16:15:39.702Z,1.20
2019-05-30T16:18:07.899Z,1.10
2019-05-30T16:20:36.124Z,1.40
2019-05-30T16:23:04.344Z,1.50
2019-05-30T16:25:32.538Z,1.00
2019-05-30T16:28:00.757Z,0.90
2019-05-30T16:30:28.954Z,1.20
2019-05-30T16:32:57.213Z,1.37
2019-05-30T16:35:26.466Z,1.10
2019-05-30T16:37:54.789Z,1.00
2019-05-30T16:40:22.984Z,1.00
2019-05-30T16:42:51.198Z,1.30
2019-05-30T16:45:24.616Z,1.20
2019-05-30T16:47:50.005Z,1.50
2019-05-30T16:50:19.051Z,1.10
2019-05-30T16:52:47.457Z,1.10
2019-05-30T16:55:15.655Z,0.93
2019-05-30T16:57:43.853Z,1.10
2019-05-30T17:00:13.752Z,1.20
2019-05-30T17:02:41.950Z,1.00
2019-05-30T17:05:10.156Z,1.60
2019-05-30T17:07:38.361Z,1.77
2019-05-30T17:10:21.507Z,1.30
2019-05-30T17:12:37.123Z,1.30
2019-05-30T17:15:08.646Z,0.90
2019-05-30T17:17:36.850Z,1.00
2019-05-30T17:20:09.799Z,1.10
2019-05-30T17:22:37.998Z,1.07
2019-05-30T17:25:09.222Z,1.17
2019-05-30T17:27:37.423Z,1.40
2019-05-30T17:30:07.068Z,1.30
2019-05-30T17:32:35.268Z,0.97
2019-05-30T17:35:07.304Z,0.80
2019-05-30T17:37:35.501Z,1.20
2019-05-30T17:40:07.598Z,1.20
2019-05-30T17:42:35.939Z,1.50
2019-05-30T17:45:07.537Z,1.20
2019-05-30T17:47:35.996Z,1.30
2019-05-30T17:50:09.136Z,1.53
2019-05-30T17:52:37.348Z,1.40
2019-05-30T17:55:06.603Z,1.40
2019-05-30T17:57:34.795Z,1.80
2019-05-30T18:00:03.153Z,2.40
2019-05-30T18:02:31.336Z,1.20
2019-05-30T18:04:59.544Z,1.50
2019-05-30T18:07:29.046Z,1.10
2019-05-30T18:09:57.608Z,1.30
2019-05-30T18:12:27.027Z,2.50
2019-05-30T18:14:55.273Z,2.43
2019-05-30T18:17:23.477Z,2.73
2019-05-30T18:19:51.714Z,3.40
2019-05-30T18:22:19.914Z,5.00
2019-05-30T18:24:48.126Z,2.87
2019-05-30T18:27:16.325Z,1.70
2019-05-30T18:29:44.768Z,1.30
2019-05-30T18:32:13.345Z,1.70
2019-05-30T18:34:41.561Z,1.60
2019-05-30T18:37:09.762Z,1.00
2019-05-30T18:39:37.965Z,1.30
2019-05-30T18:42:06.157Z,1.60
2019-05-30T18:44:34.484Z,1.47
2019-05-30T18:47:02.753Z,1.67
2019-05-30T18:49:31.318Z,1.40
2019-05-30T18:51:59.632Z,1.33
2019-05-30T18:54:28.534Z,1.40
2019-05-30T18:56:56.812Z,1.50
2019-05-30T18:59:25.004Z,1.80
2019-05-30T19:01:53.226Z,1.37
2019-05-30T19:04:22.943Z,1.53
2019-05-30T19:06:51.230Z,1.43
2019-05-30T19:09:19.436Z,1.40
2019-05-30T19:11:47.643Z,1.30
2019-05-30T19:14:15.830Z,2.20
2019-05-30T19:16:44.051Z,2.03
2019-05-30T19:19:12.244Z,1.77
2019-05-30T19:21:40.480Z,1.70
2019-05-30T19:24:08.900Z,2.10
2019-05-30T19:26:37.122Z,1.70
2019-05-30T19:29:05.321Z,2.63
2019-05-30T19:31:34.703Z,2.13
2019-05-30T19:34:03.008Z,2.10
2019-05-30T19:36:31.200Z,2.20
2019-05-30T19:38:59.396Z,2.00
2019-05-30T19:41:41.610Z,1.70
2019-05-30T19:43:57.535Z,2.00
2019-05-30T19:46:25.977Z,1.70
2019-05-30T19:48:54.175Z,1.93
2019-05-30T19:51:22.372Z,1.70
2019-05-30T19:53:50.678Z,1.63
2019-05-30T19:56:18.969Z,1.73
2019-05-30T19:58:47.415Z,1.90
2019-05-30T20:01:15.620Z,1.30
2019-05-30T20:03:47.027Z,1.73
2019-05-30T20:06:13.800Z,1.60
2019-05-30T20:08:54.570Z,1.40
2019-05-30T20:11:11.965Z,11.73
2019-05-30T20:13:41.296Z,10.67
2019-05-30T20:16:09.543Z,2.90
2019-05-30T20:18:37.746Z,1.80
2019-05-30T20:21:05.940Z,1.70
2019-05-30T20:23:47.336Z,1.70
2019-05-30T20:26:04.090Z,1.50
2019-05-30T20:28:32.712Z,1.60
2019-05-30T20:31:00.953Z,1.80
2019-05-30T20:33:29.373Z,2.10
2019-05-30T20:35:57.572Z,2.77
2019-05-30T20:38:25.774Z,2.60
2019-05-30T20:40:53.977Z,1.90
2019-05-30T20:43:22.185Z,1.80
2019-05-30T20:45:50.389Z,1.70
2019-05-30T20:48:18.765Z,1.67
2019-05-30T20:50:47.419Z,1.63
2019-05-30T20:53:15.866Z,1.43
2019-05-30T20:55:44.089Z,1.67
2019-05-30T20:58:12.329Z,1.50
2019-05-30T21:00:42.129Z,1.50
2019-05-30T21:03:10.517Z,1.70
2019-05-30T21:05:39.793Z,1.70
2019-05-30T21:08:08.101Z,2.00
2019-05-30T21:10:37.029Z,1.60
2019-05-30T21:13:05.353Z,1.70
2019-05-30T21:15:35.253Z,1.60
2019-05-30T21:18:04.709Z,1.70
2019-05-30T21:20:32.902Z,1.80
2019-05-30T21:23:01.125Z,1.50
2019-05-30T21:25:29.329Z,1.63
2019-05-30T21:27:57.529Z,1.87
2019-05-30T21:30:25.728Z,1.60
2019-05-30T21:32:54.166Z,1.87
2019-05-30T21:35:22.531Z,1.60
2019-05-30T21:37:50.886Z,1.80
2019-05-30T21:40:19.075Z,1.93
2019-05-30T21:43:03.260Z,1.87
2019-05-30T21:45:17.189Z,2.13
2019-05-30T21:47:45.412Z,1.90
2019-05-30T21:50:13.837Z,2.00
2019-05-30T21:52:43.470Z,1.87
2019-05-30T21:55:11.827Z,2.03
2019-05-30T21:57:40.253Z,2.13
2019-05-30T22:00:11.162Z,2.03
2019-05-30T22:02:40.298Z,1.90
2019-05-30T22:05:08.534Z,1.70
2019-05-30T22:07:36.745Z,13.47
2019-05-30T22:10:04.959Z,16.07
2019-05-30T22:12:33.393Z,3.20
2019-05-30T22:15:01.620Z,2.37
2019-05-30T22:17:29.808Z,1.87
2019-05-30T22:19:58.017Z,1.90
2019-05-30T22:22:26.213Z,1.57
2019-05-30T22:24:54.800Z,1.83
2019-05-30T22:27:22.998Z,1.90
2019-05-30T22:29:52.396Z,1.93
2019-05-30T22:32:20.908Z,1.63
2019-05-30T22:34:49.127Z,1.90
2019-05-30T22:37:17.333Z,1.90
2019-05-30T22:39:46.722Z,1.97
2019-05-30T22:42:15.106Z,1.70
2019-05-30T22:44:43.988Z,1.90
2019-05-30T22:47:12.457Z,2.00
2019-05-30T22:49:40.660Z,1.90
2019-05-30T22:52:08.877Z,1.60
2019-05-30T22:54:37.100Z,1.70
2019-05-30T22:57:05.305Z,1.73
2019-05-30T22:59:33.520Z,1.70
2019-05-30T23:02:01.732Z,2.03
2019-05-30T23:04:30.244Z,2.00
2019-05-30T23:06:58.500Z,2.10
2019-05-30T23:09:26.943Z,1.83
2019-05-30T23:11:55.999Z,1.90
2019-05-30T23:14:24.328Z,1.63
2019-05-30T23:16:52.534Z,1.60
2019-05-30T23:19:20.747Z,2.00
2019-05-30T23:21:48.962Z,1.70
2019-05-30T23:24:17.172Z,1.60
2019-05-30T23:26:45.385Z,1.77
2019-05-30T23:29:13.585Z,1.73
2019-05-30T23:31:41.784Z,1.70
2019-05-30T23:34:09.979Z,1.63
2019-05-30T23:36:38.203Z,1.90
2019-05-30T23:39:06.840Z,2.10
2019-05-30T23:41:35.048Z,1.80
2019-05-30T23:44:10.912Z,1.63
2019-05-30T23:46:33.588Z,1.70
2019-05-30T23:49:01.783Z,1.80
2019-05-30T23:51:29.984Z,1.60
2019-05-30T23:53:58.396Z,2.03
2019-05-30T23:56:26.704Z,1.80
2019-05-30T23:58:55.168Z,1.90
